sensor_id;sensor_type;location;lat;lon;timestamp;P1;durP1;ratioP1;P2;durP2;ratioP2
53299;SDS011;39187;48.476;8.310;2023-06-22T00:01:52;18.60;;;15.40;;
53299;SDS011;39187;48.476;8.310;2023-06-22T00:04:18;17.43;;;15.63;;
53299;SDS011;39187;48.476;8.310;2023-06-22T00:06:43;18.80;;;16.60;;
53299;SDS011;39187;48.476;8.310;2023-06-22T00:09:09;16.33;;;14.80;;
53299;SDS011;39187;48.476;8.310;2023-06-22T00:11:35;17.13;;;14.87;;
53299;SDS011;39187;48.476;8.310;2023-06-22T00:14:02;18.40;;;15.87;;
53299;SDS011;39187;48.476;8.310;2023-06-22T00:16:28;19.27;;;17.33;;
53299;SDS011;39187;48.476;8.310;2023-06-22T00:18:54;19.33;;;17.23;;
53299;SDS011;39187;48.476;8.310;2023-06-22T00:21:19;18.43;;;15.90;;
53299;SDS011;39187;48.476;8.310;2023-06-22T00:23:45;19.03;;;17.23;;
53299;SDS011;39187;48.476;8.310;2023-06-22T00:26:12;21.63;;;15.33;;
53299;SDS011;39187;48.476;8.310;2023-06-22T00:28:38;21.07;;;16.73;;
53299;SDS011;39187;48.476;8.310;2023-06-22T00:31:03;23.33;;;16.43;;
53299;SDS011;39187;48.476;8.310;2023-06-22T00:33:29;18.00;;;16.27;;
53299;SDS011;39187;48.476;8.310;2023-06-22T00:35:55;19.47;;;17.47;;
53299;SDS011;39187;48.476;8.310;2023-06-22T00:38:20;18.17;;;16.23;;
53299;SDS011;39187;48.476;8.310;2023-06-22T00:40:46;20.93;;;17.47;;
53299;SDS011;39187;48.476;8.310;2023-06-22T00:43:11;18.80;;;16.67;;
53299;SDS011;39187;48.476;8.310;2023-06-22T00:45:37;17.57;;;15.87;;
53299;SDS011;39187;48.476;8.310;2023-06-22T00:48:03;18.50;;;16.30;;
53299;SDS011;39187;48.476;8.310;2023-06-22T00:50:30;16.13;;;14.63;;
53299;SDS011;39187;48.476;8.310;2023-06-22T00:53:02;17.97;;;14.60;;
53299;SDS011;39187;48.476;8.310;2023-06-22T00:55:33;17.30;;;15.40;;
53299;SDS011;39187;48.476;8.310;2023-06-22T00:58:03;20.40;;;16.27;;
53299;SDS011;39187;48.476;8.310;2023-06-22T01:00:30;17.90;;;16.03;;
53299;SDS011;39187;48.476;8.310;2023-06-22T01:02:57;17.43;;;14.43;;
53299;SDS011;39187;48.476;8.310;2023-06-22T01:05:23;16.17;;;14.40;;
53299;SDS011;39187;48.476;8.310;2023-06-22T01:10:39;15.93;;;14.30;;
53299;SDS011;39187;48.476;8.310;2023-06-22T01:13:18;18.23;;;15.20;;
53299;SDS011;39187;48.476;8.310;2023-06-22T01:16:03;16.00;;;14.37;;
53299;SDS011;39187;48.476;8.310;2023-06-22T01:18:35;16.20;;;14.70;;
53299;SDS011;39187;48.476;8.310;2023-06-22T01:21:04;13.67;;;12.50;;
53299;SDS011;39187;48.476;8.310;2023-06-22T01:26:39;17.07;;;15.13;;
53299;SDS011;39187;48.476;8.310;2023-06-22T01:29:10;16.20;;;14.67;;
53299;SDS011;39187;48.476;8.310;2023-06-22T01:31:38;26.97;;;15.20;;
53299;SDS011;39187;48.476;8.310;2023-06-22T01:34:06;19.83;;;13.30;;
53299;SDS011;39187;48.476;8.310;2023-06-22T01:36:33;25.43;;;15.97;;
53299;SDS011;39187;48.476;8.310;2023-06-22T01:38:59;17.33;;;14.67;;
53299;SDS011;39187;48.476;8.310;2023-06-22T01:41:27;15.20;;;13.60;;
53299;SDS011;39187;48.476;8.310;2023-06-22T01:43:55;17.87;;;13.83;;
53299;SDS011;39187;48.476;8.310;2023-06-22T01:46:21;15.40;;;13.67;;
53299;SDS011;39187;48.476;8.310;2023-06-22T01:48:48;15.77;;;14.27;;
53299;SDS011;39187;48.476;8.310;2023-06-22T01:51:15;17.53;;;14.53;;
53299;SDS011;39187;48.476;8.310;2023-06-22T01:53:41;17.97;;;15.33;;
53299;SDS011;39187;48.476;8.310;2023-06-22T01:56:07;16.93;;;15.40;;
53299;SDS011;39187;48.476;8.310;2023-06-22T01:58:34;24.83;;;15.57;;
53299;SDS011;39187;48.476;8.310;2023-06-22T02:01:09;19.40;;;15.73;;
53299;SDS011;39187;48.476;8.310;2023-06-22T02:03:43;15.83;;;14.23;;
53299;SDS011;39187;48.476;8.310;2023-06-22T02:06:27;21.20;;;14.37;;
53299;SDS011;39187;48.476;8.310;2023-06-22T02:09:01;19.47;;;14.30;;
53299;SDS011;39187;48.476;8.310;2023-06-22T02:11:31;15.23;;;13.77;;
53299;SDS011;39187;48.476;8.310;2023-06-22T02:13:58;19.60;;;15.50;;
53299;SDS011;39187;48.476;8.310;2023-06-22T02:16:25;15.10;;;13.63;;
53299;SDS011;39187;48.476;8.310;2023-06-22T02:18:55;15.93;;;14.20;;
53299;SDS011;39187;48.476;8.310;2023-06-22T02:21:23;22.87;;;14.30;;
53299;SDS011;39187;48.476;8.310;2023-06-22T02:23:48;24.60;;;15.97;;
53299;SDS011;39187;48.476;8.310;2023-06-22T02:26:16;17.90;;;14.47;;
53299;SDS011;39187;48.476;8.310;2023-06-22T02:28:42;23.53;;;15.30;;
53299;SDS011;39187;48.476;8.310;2023-06-22T02:31:08;25.67;;;17.77;;
53299;SDS011;39187;48.476;8.310;2023-06-22T02:33:34;20.87;;;15.97;;
53299;SDS011;39187;48.476;8.310;2023-06-22T02:35:59;17.37;;;15.30;;
53299;SDS011;39187;48.476;8.310;2023-06-22T02:38:25;20.07;;;15.37;;
53299;SDS011;39187;48.476;8.310;2023-06-22T02:40:51;17.27;;;15.60;;
53299;SDS011;39187;48.476;8.310;2023-06-22T02:43:17;19.63;;;14.60;;
53299;SDS011;39187;48.476;8.310;2023-06-22T02:45:42;19.37;;;14.70;;
53299;SDS011;39187;48.476;8.310;2023-06-22T02:48:08;16.03;;;14.50;;
53299;SDS011;39187;48.476;8.310;2023-06-22T02:50:33;20.87;;;14.97;;
53299;SDS011;39187;48.476;8.310;2023-06-22T02:52:59;24.43;;;15.97;;
53299;SDS011;39187;48.476;8.310;2023-06-22T02:55:24;16.50;;;15.07;;
53299;SDS011;39187;48.476;8.310;2023-06-22T02:57:50;23.03;;;13.67;;
53299;SDS011;39187;48.476;8.310;2023-06-22T03:00:18;18.47;;;14.57;;
53299;SDS011;39187;48.476;8.310;2023-06-22T03:02:44;17.63;;;15.30;;
53299;SDS011;39187;48.476;8.310;2023-06-22T03:05:11;16.43;;;14.80;;
53299;SDS011;39187;48.476;8.310;2023-06-22T03:07:41;16.07;;;14.40;;
53299;SDS011;39187;48.476;8.310;2023-06-22T03:10:08;16.43;;;14.93;;
53299;SDS011;39187;48.476;8.310;2023-06-22T03:12:34;21.97;;;14.67;;
53299;SDS011;39187;48.476;8.310;2023-06-22T03:15:00;19.67;;;14.77;;
53299;SDS011;39187;48.476;8.310;2023-06-22T03:17:26;18.80;;;14.80;;
53299;SDS011;39187;48.476;8.310;2023-06-22T03:19:51;21.20;;;14.90;;
53299;SDS011;39187;48.476;8.310;2023-06-22T03:22:17;23.47;;;14.87;;
53299;SDS011;39187;48.476;8.310;2023-06-22T03:24:42;15.07;;;13.73;;
53299;SDS011;39187;48.476;8.310;2023-06-22T03:27:08;16.47;;;14.83;;
53299;SDS011;39187;48.476;8.310;2023-06-22T03:29:33;28.87;;;15.67;;
53299;SDS011;39187;48.476;8.310;2023-06-22T03:31:59;21.13;;;15.77;;
53299;SDS011;39187;48.476;8.310;2023-06-22T03:34:24;22.30;;;15.33;;
53299;SDS011;39187;48.476;8.310;2023-06-22T03:36:50;17.77;;;14.60;;
53299;SDS011;39187;48.476;8.310;2023-06-22T03:39:16;18.37;;;14.20;;
53299;SDS011;39187;48.476;8.310;2023-06-22T03:41:41;16.17;;;13.93;;
53299;SDS011;39187;48.476;8.310;2023-06-22T03:44:07;25.03;;;15.70;;
53299;SDS011;39187;48.476;8.310;2023-06-22T03:46:35;15.90;;;13.60;;
53299;SDS011;39187;48.476;8.310;2023-06-22T03:49:01;17.70;;;13.27;;
53299;SDS011;39187;48.476;8.310;2023-06-22T03:51:28;15.00;;;13.57;;
53299;SDS011;39187;48.476;8.310;2023-06-22T03:53:53;22.20;;;14.43;;
53299;SDS011;39187;48.476;8.310;2023-06-22T03:56:19;15.30;;;13.57;;
53299;SDS011;39187;48.476;8.310;2023-06-22T03:58:46;20.90;;;13.30;;
53299;SDS011;39187;48.476;8.310;2023-06-22T04:01:11;16.87;;;13.73;;
53299;SDS011;39187;48.476;8.310;2023-06-22T04:03:37;15.80;;;12.90;;
53299;SDS011;39187;48.476;8.310;2023-06-22T04:06:03;13.53;;;12.13;;
53299;SDS011;39187;48.476;8.310;2023-06-22T04:08:29;15.27;;;12.47;;
53299;SDS011;39187;48.476;8.310;2023-06-22T04:10:55;18.53;;;13.07;;
53299;SDS011;39187;48.476;8.310;2023-06-22T04:13:21;17.23;;;13.33;;
53299;SDS011;39187;48.476;8.310;2023-06-22T04:15:47;15.40;;;11.77;;
53299;SDS011;39187;48.476;8.310;2023-06-22T04:18:12;12.83;;;11.43;;
53299;SDS011;39187;48.476;8.310;2023-06-22T04:20:38;12.83;;;11.63;;
53299;SDS011;39187;48.476;8.310;2023-06-22T04:23:04;12.87;;;11.50;;
53299;SDS011;39187;48.476;8.310;2023-06-22T04:25:30;20.27;;;12.53;;
53299;SDS011;39187;48.476;8.310;2023-06-22T04:27:56;13.60;;;11.93;;
53299;SDS011;39187;48.476;8.310;2023-06-22T04:30:21;13.57;;;12.17;;
53299;SDS011;39187;48.476;8.310;2023-06-22T04:32:47;12.47;;;10.40;;
53299;SDS011;39187;48.476;8.310;2023-06-22T04:35:23;11.23;;;10.13;;
53299;SDS011;39187;48.476;8.310;2023-06-22T04:37:49;11.50;;;10.40;;
53299;SDS011;39187;48.476;8.310;2023-06-22T04:40:15;12.40;;;9.20;;
53299;SDS011;39187;48.476;8.310;2023-06-22T04:42:41;10.73;;;9.60;;
53299;SDS011;39187;48.476;8.310;2023-06-22T04:45:17;11.50;;;10.27;;
53299;SDS011;39187;48.476;8.310;2023-06-22T04:47:43;10.63;;;9.67;;
53299;SDS011;39187;48.476;8.310;2023-06-22T04:50:10;14.73;;;9.20;;
53299;SDS011;39187;48.476;8.310;2023-06-22T04:52:37;11.10;;;9.27;;
53299;SDS011;39187;48.476;8.310;2023-06-22T04:55:03;14.23;;;8.27;;
53299;SDS011;39187;48.476;8.310;2023-06-22T04:57:29;16.20;;;8.43;;
53299;SDS011;39187;48.476;8.310;2023-06-22T04:59:59;9.57;;;8.47;;
53299;SDS011;39187;48.476;8.310;2023-06-22T05:02:37;8.63;;;8.03;;
53299;SDS011;39187;48.476;8.310;2023-06-22T05:05:04;13.30;;;8.77;;
53299;SDS011;39187;48.476;8.310;2023-06-22T05:07:35;10.87;;;9.87;;
53299;SDS011;39187;48.476;8.310;2023-06-22T05:10:01;10.37;;;9.10;;
53299;SDS011;39187;48.476;8.310;2023-06-22T05:12:29;8.03;;;7.33;;
53299;SDS011;39187;48.476;8.310;2023-06-22T05:14:56;9.33;;;8.13;;
53299;SDS011;39187;48.476;8.310;2023-06-22T05:17:21;10.73;;;9.67;;
53299;SDS011;39187;48.476;8.310;2023-06-22T05:19:47;9.73;;;8.67;;
53299;SDS011;39187;48.476;8.310;2023-06-22T05:22:15;10.77;;;8.67;;
53299;SDS011;39187;48.476;8.310;2023-06-22T05:24:41;11.83;;;7.87;;
53299;SDS011;39187;48.476;8.310;2023-06-22T05:27:08;10.60;;;8.47;;
53299;SDS011;39187;48.476;8.310;2023-06-22T05:29:34;11.67;;;8.57;;
53299;SDS011;39187;48.476;8.310;2023-06-22T05:32:00;12.23;;;8.33;;
53299;SDS011;39187;48.476;8.310;2023-06-22T05:34:26;13.23;;;8.03;;
53299;SDS011;39187;48.476;8.310;2023-06-22T05:36:51;9.13;;;8.13;;
53299;SDS011;39187;48.476;8.310;2023-06-22T05:39:17;11.93;;;7.90;;
53299;SDS011;39187;48.476;8.310;2023-06-22T05:41:43;8.27;;;7.40;;
53299;SDS011;39187;48.476;8.310;2023-06-22T05:44:09;8.87;;;8.07;;
53299;SDS011;39187;48.476;8.310;2023-06-22T05:46:35;9.80;;;7.47;;
53299;SDS011;39187;48.476;8.310;2023-06-22T05:49:01;8.10;;;7.40;;
53299;SDS011;39187;48.476;8.310;2023-06-22T05:51:26;11.53;;;8.43;;
53299;SDS011;39187;48.476;8.310;2023-06-22T05:53:52;9.90;;;9.03;;
53299;SDS011;39187;48.476;8.310;2023-06-22T05:56:17;10.40;;;8.03;;
53299;SDS011;39187;48.476;8.310;2023-06-22T05:58:43;8.83;;;7.60;;
53299;SDS011;39187;48.476;8.310;2023-06-22T06:01:09;9.20;;;7.57;;
53299;SDS011;39187;48.476;8.310;2023-06-22T06:03:34;7.60;;;7.03;;
53299;SDS011;39187;48.476;8.310;2023-06-22T06:06:06;7.80;;;7.03;;
53299;SDS011;39187;48.476;8.310;2023-06-22T06:08:32;10.77;;;8.13;;
53299;SDS011;39187;48.476;8.310;2023-06-22T06:10:58;7.60;;;6.87;;
53299;SDS011;39187;48.476;8.310;2023-06-22T06:13:24;8.73;;;7.93;;
53299;SDS011;39187;48.476;8.310;2023-06-22T06:15:49;10.30;;;8.40;;
53299;SDS011;39187;48.476;8.310;2023-06-22T06:18:20;10.90;;;7.83;;
53299;SDS011;39187;48.476;8.310;2023-06-22T06:20:46;7.57;;;6.97;;
53299;SDS011;39187;48.476;8.310;2023-06-22T06:23:11;8.70;;;7.50;;
53299;SDS011;39187;48.476;8.310;2023-06-22T06:28:18;14.13;;;7.67;;
53299;SDS011;39187;48.476;8.310;2023-06-22T06:30:44;9.47;;;6.90;;
53299;SDS011;39187;48.476;8.310;2023-06-22T06:33:12;6.60;;;6.00;;
53299;SDS011;39187;48.476;8.310;2023-06-22T06:35:38;6.90;;;6.50;;
53299;SDS011;39187;48.476;8.310;2023-06-22T06:38:04;6.60;;;6.07;;
53299;SDS011;39187;48.476;8.310;2023-06-22T06:40:29;6.80;;;6.20;;
53299;SDS011;39187;48.476;8.310;2023-06-22T06:42:55;12.97;;;8.47;;
53299;SDS011;39187;48.476;8.310;2023-06-22T06:45:21;6.67;;;6.07;;
53299;SDS011;39187;48.476;8.310;2023-06-22T06:47:48;7.00;;;6.37;;
53299;SDS011;39187;48.476;8.310;2023-06-22T06:50:14;7.43;;;6.70;;
53299;SDS011;39187;48.476;8.310;2023-06-22T06:52:40;7.70;;;6.60;;
53299;SDS011;39187;48.476;8.310;2023-06-22T06:55:06;11.63;;;7.00;;
53299;SDS011;39187;48.476;8.310;2023-06-22T06:57:35;10.73;;;6.87;;
53299;SDS011;39187;48.476;8.310;2023-06-22T07:00:02;9.10;;;6.50;;
53299;SDS011;39187;48.476;8.310;2023-06-22T07:02:34;7.23;;;6.53;;
53299;SDS011;39187;48.476;8.310;2023-06-22T07:05:00;7.40;;;6.03;;
53299;SDS011;39187;48.476;8.310;2023-06-22T07:07:28;8.67;;;6.47;;
53299;SDS011;39187;48.476;8.310;2023-06-22T07:09:54;12.87;;;5.80;;
53299;SDS011;39187;48.476;8.310;2023-06-22T07:12:19;11.23;;;5.80;;
53299;SDS011;39187;48.476;8.310;2023-06-22T07:14:46;8.40;;;5.50;;
53299;SDS011;39187;48.476;8.310;2023-06-22T07:17:11;9.13;;;6.53;;
53299;SDS011;39187;48.476;8.310;2023-06-22T07:19:37;6.00;;;5.43;;
53299;SDS011;39187;48.476;8.310;2023-06-22T07:22:03;6.53;;;5.90;;
53299;SDS011;39187;48.476;8.310;2023-06-22T07:24:28;10.40;;;5.97;;
53299;SDS011;39187;48.476;8.310;2023-06-22T07:26:54;6.17;;;5.57;;
53299;SDS011;39187;48.476;8.310;2023-06-22T07:29:20;11.17;;;5.70;;
53299;SDS011;39187;48.476;8.310;2023-06-22T07:31:46;5.90;;;5.50;;
53299;SDS011;39187;48.476;8.310;2023-06-22T07:34:12;6.50;;;5.93;;
53299;SDS011;39187;48.476;8.310;2023-06-22T07:36:38;6.83;;;6.13;;
53299;SDS011;39187;48.476;8.310;2023-06-22T07:39:03;6.17;;;5.57;;
53299;SDS011;39187;48.476;8.310;2023-06-22T07:41:30;7.73;;;6.07;;
53299;SDS011;39187;48.476;8.310;2023-06-22T07:43:56;7.93;;;6.80;;
53299;SDS011;39187;48.476;8.310;2023-06-22T07:46:21;8.87;;;6.17;;
53299;SDS011;39187;48.476;8.310;2023-06-22T07:48:47;6.47;;;5.97;;
53299;SDS011;39187;48.476;8.310;2023-06-22T07:51:13;6.43;;;6.00;;
53299;SDS011;39187;48.476;8.310;2023-06-22T07:53:40;6.83;;;5.80;;
53299;SDS011;39187;48.476;8.310;2023-06-22T07:56:06;8.13;;;6.43;;
53299;SDS011;39187;48.476;8.310;2023-06-22T07:58:34;7.60;;;6.30;;
53299;SDS011;39187;48.476;8.310;2023-06-22T08:00:59;7.03;;;5.87;;
53299;SDS011;39187;48.476;8.310;2023-06-22T08:03:25;6.60;;;6.17;;
53299;SDS011;39187;48.476;8.310;2023-06-22T08:05:51;13.90;;;6.77;;
53299;SDS011;39187;48.476;8.310;2023-06-22T08:08:16;9.80;;;7.33;;
53299;SDS011;39187;48.476;8.310;2023-06-22T08:10:42;15.13;;;7.30;;
53299;SDS011;39187;48.476;8.310;2023-06-22T08:13:08;9.17;;;6.80;;
53299;SDS011;39187;48.476;8.310;2023-06-22T08:15:33;7.33;;;6.03;;
53299;SDS011;39187;48.476;8.310;2023-06-22T08:17:59;15.23;;;6.43;;
53299;SDS011;39187;48.476;8.310;2023-06-22T08:20:26;9.63;;;6.07;;
53299;SDS011;39187;48.476;8.310;2023-06-22T08:22:52;16.30;;;6.80;;
53299;SDS011;39187;48.476;8.310;2023-06-22T08:25:19;6.97;;;6.30;;
53299;SDS011;39187;48.476;8.310;2023-06-22T08:27:45;11.83;;;7.30;;
53299;SDS011;39187;48.476;8.310;2023-06-22T08:30:12;13.33;;;6.50;;
53299;SDS011;39187;48.476;8.310;2023-06-22T08:32:38;8.17;;;6.87;;
53299;SDS011;39187;48.476;8.310;2023-06-22T08:35:04;7.70;;;6.23;;
53299;SDS011;39187;48.476;8.310;2023-06-22T08:37:31;14.40;;;7.07;;
53299;SDS011;39187;48.476;8.310;2023-06-22T08:40:00;13.63;;;6.20;;
53299;SDS011;39187;48.476;8.310;2023-06-22T08:42:27;15.13;;;7.20;;
53299;SDS011;39187;48.476;8.310;2023-06-22T08:44:52;8.37;;;6.50;;
53299;SDS011;39187;48.476;8.310;2023-06-22T08:47:19;7.60;;;5.53;;
53299;SDS011;39187;48.476;8.310;2023-06-22T08:49:45;15.87;;;6.10;;
53299;SDS011;39187;48.476;8.310;2023-06-22T08:52:10;7.27;;;6.23;;
53299;SDS011;39187;48.476;8.310;2023-06-22T08:54:36;12.30;;;6.23;;
53299;SDS011;39187;48.476;8.310;2023-06-22T08:57:02;10.23;;;5.80;;
53299;SDS011;39187;48.476;8.310;2023-06-22T08:59:27;10.13;;;5.60;;
53299;SDS011;39187;48.476;8.310;2023-06-22T09:01:53;15.37;;;5.63;;
53299;SDS011;39187;48.476;8.310;2023-06-22T09:04:19;10.70;;;5.90;;
53299;SDS011;39187;48.476;8.310;2023-06-22T09:06:47;15.07;;;6.27;;
53299;SDS011;39187;48.476;8.310;2023-06-22T09:09:13;11.17;;;6.20;;
53299;SDS011;39187;48.476;8.310;2023-06-22T09:11:39;8.57;;;5.57;;
53299;SDS011;39187;48.476;8.310;2023-06-22T09:14:05;5.70;;;5.17;;
53299;SDS011;39187;48.476;8.310;2023-06-22T09:16:30;9.70;;;5.93;;
53299;SDS011;39187;48.476;8.310;2023-06-22T09:18:56;12.53;;;5.67;;
53299;SDS011;39187;48.476;8.310;2023-06-22T09:21:22;12.73;;;5.10;;
53299;SDS011;39187;48.476;8.310;2023-06-22T09:23:50;12.33;;;5.17;;
53299;SDS011;39187;48.476;8.310;2023-06-22T09:26:17;11.57;;;5.63;;
53299;SDS011;39187;48.476;8.310;2023-06-22T09:28:44;8.83;;;4.67;;
53299;SDS011;39187;48.476;8.310;2023-06-22T09:31:12;6.40;;;4.57;;
53299;SDS011;39187;48.476;8.310;2023-06-22T09:33:39;8.40;;;5.87;;
53299;SDS011;39187;48.476;8.310;2023-06-22T09:36:07;15.57;;;6.67;;
53299;SDS011;39187;48.476;8.310;2023-06-22T09:38:38;8.33;;;6.20;;
53299;SDS011;39187;48.476;8.310;2023-06-22T09:41:05;7.70;;;5.37;;
53299;SDS011;39187;48.476;8.310;2023-06-22T09:43:32;18.27;;;5.80;;
53299;SDS011;39187;48.476;8.310;2023-06-22T09:46:01;8.03;;;5.20;;
53299;SDS011;39187;48.476;8.310;2023-06-22T09:48:28;8.70;;;5.70;;
53299;SDS011;39187;48.476;8.310;2023-06-22T09:50:56;13.10;;;6.90;;
53299;SDS011;39187;48.476;8.310;2023-06-22T09:53:22;7.43;;;6.10;;
53299;SDS011;39187;48.476;8.310;2023-06-22T09:55:49;9.03;;;5.37;;
53299;SDS011;39187;48.476;8.310;2023-06-22T09:58:17;10.50;;;5.50;;
53299;SDS011;39187;48.476;8.310;2023-06-22T10:00:43;9.97;;;4.53;;
53299;SDS011;39187;48.476;8.310;2023-06-22T10:03:10;11.30;;;5.93;;
53299;SDS011;39187;48.476;8.310;2023-06-22T10:05:37;11.40;;;5.37;;
53299;SDS011;39187;48.476;8.310;2023-06-22T10:08:07;8.93;;;5.40;;
53299;SDS011;39187;48.476;8.310;2023-06-22T10:10:35;6.70;;;4.40;;
53299;SDS011;39187;48.476;8.310;2023-06-22T10:13:10;12.57;;;4.23;;
53299;SDS011;39187;48.476;8.310;2023-06-22T10:15:36;12.47;;;5.87;;
53299;SDS011;39187;48.476;8.310;2023-06-22T10:18:03;10.63;;;5.33;;
53299;SDS011;39187;48.476;8.310;2023-06-22T10:20:32;19.33;;;6.07;;
53299;SDS011;39187;48.476;8.310;2023-06-22T10:22:57;17.17;;;6.30;;
53299;SDS011;39187;48.476;8.310;2023-06-22T10:25:23;8.50;;;4.77;;
53299;SDS011;39187;48.476;8.310;2023-06-22T10:27:49;17.00;;;6.60;;
53299;SDS011;39187;48.476;8.310;2023-06-22T10:30:14;11.90;;;5.50;;
53299;SDS011;39187;48.476;8.310;2023-06-22T10:32:41;10.13;;;5.10;;
53299;SDS011;39187;48.476;8.310;2023-06-22T10:35:10;12.67;;;6.13;;
53299;SDS011;39187;48.476;8.310;2023-06-22T10:37:38;11.10;;;5.60;;
53299;SDS011;39187;48.476;8.310;2023-06-22T10:40:04;9.00;;;5.40;;
53299;SDS011;39187;48.476;8.310;2023-06-22T10:42:30;14.47;;;5.40;;
53299;SDS011;39187;48.476;8.310;2023-06-22T10:44:56;15.00;;;5.20;;
53299;SDS011;39187;48.476;8.310;2023-06-22T10:47:22;11.77;;;5.80;;
53299;SDS011;39187;48.476;8.310;2023-06-22T10:49:47;29.07;;;6.73;;
53299;SDS011;39187;48.476;8.310;2023-06-22T10:52:14;8.00;;;4.83;;
53299;SDS011;39187;48.476;8.310;2023-06-22T10:54:41;17.80;;;5.80;;
53299;SDS011;39187;48.476;8.310;2023-06-22T10:57:06;13.40;;;5.70;;
53299;SDS011;39187;48.476;8.310;2023-06-22T10:59:32;16.80;;;6.10;;
53299;SDS011;39187;48.476;8.310;2023-06-22T11:01:58;10.07;;;5.53;;
53299;SDS011;39187;48.476;8.310;2023-06-22T11:04:24;20.50;;;5.37;;
53299;SDS011;39187;48.476;8.310;2023-06-22T11:06:50;9.73;;;5.50;;
53299;SDS011;39187;48.476;8.310;2023-06-22T11:09:16;12.97;;;5.60;;
53299;SDS011;39187;48.476;8.310;2023-06-22T11:11:45;7.83;;;4.80;;
53299;SDS011;39187;48.476;8.310;2023-06-22T11:14:15;15.30;;;6.93;;
53299;SDS011;39187;48.476;8.310;2023-06-22T11:16:41;10.50;;;5.30;;
53299;SDS011;39187;48.476;8.310;2023-06-22T11:19:06;16.93;;;5.93;;
53299;SDS011;39187;48.476;8.310;2023-06-22T11:21:32;24.80;;;5.43;;
53299;SDS011;39187;48.476;8.310;2023-06-22T11:23:58;22.80;;;5.40;;
53299;SDS011;39187;48.476;8.310;2023-06-22T11:26:24;13.83;;;5.90;;
53299;SDS011;39187;48.476;8.310;2023-06-22T11:28:54;9.23;;;5.83;;
53299;SDS011;39187;48.476;8.310;2023-06-22T11:31:20;13.13;;;5.43;;
53299;SDS011;39187;48.476;8.310;2023-06-22T11:33:45;19.23;;;5.87;;
53299;SDS011;39187;48.476;8.310;2023-06-22T11:36:12;13.53;;;5.90;;
53299;SDS011;39187;48.476;8.310;2023-06-22T11:38:37;18.00;;;6.27;;
53299;SDS011;39187;48.476;8.310;2023-06-22T11:41:07;15.03;;;5.00;;
53299;SDS011;39187;48.476;8.310;2023-06-22T11:43:32;18.03;;;5.47;;
53299;SDS011;39187;48.476;8.310;2023-06-22T11:45:59;14.07;;;4.70;;
53299;SDS011;39187;48.476;8.310;2023-06-22T11:48:25;19.40;;;6.40;;
53299;SDS011;39187;48.476;8.310;2023-06-22T11:50:51;22.63;;;9.67;;
53299;SDS011;39187;48.476;8.310;2023-06-22T11:53:16;17.00;;;5.70;;
53299;SDS011;39187;48.476;8.310;2023-06-22T11:55:43;21.23;;;6.97;;
53299;SDS011;39187;48.476;8.310;2023-06-22T11:58:09;12.33;;;4.80;;
53299;SDS011;39187;48.476;8.310;2023-06-22T12:00:34;18.20;;;5.73;;
53299;SDS011;39187;48.476;8.310;2023-06-22T12:03:00;14.83;;;6.10;;
53299;SDS011;39187;48.476;8.310;2023-06-22T12:05:25;16.10;;;6.73;;
53299;SDS011;39187;48.476;8.310;2023-06-22T12:07:54;9.83;;;5.37;;
53299;SDS011;39187;48.476;8.310;2023-06-22T12:10:20;22.53;;;5.70;;
53299;SDS011;39187;48.476;8.310;2023-06-22T12:12:50;11.63;;;4.90;;
53299;SDS011;39187;48.476;8.310;2023-06-22T12:15:15;9.70;;;4.73;;
53299;SDS011;39187;48.476;8.310;2023-06-22T12:17:41;6.57;;;4.60;;
53299;SDS011;39187;48.476;8.310;2023-06-22T12:20:06;16.93;;;6.57;;
53299;SDS011;39187;48.476;8.310;2023-06-22T12:22:33;9.13;;;5.20;;
53299;SDS011;39187;48.476;8.310;2023-06-22T12:24:59;11.87;;;5.30;;
53299;SDS011;39187;48.476;8.310;2023-06-22T12:27:26;14.53;;;4.73;;
53299;SDS011;39187;48.476;8.310;2023-06-22T12:29:51;9.27;;;5.90;;
53299;SDS011;39187;48.476;8.310;2023-06-22T12:32:17;12.37;;;5.70;;
53299;SDS011;39187;48.476;8.310;2023-06-22T12:34:43;7.97;;;5.83;;
53299;SDS011;39187;48.476;8.310;2023-06-22T12:37:08;17.03;;;6.23;;
53299;SDS011;39187;48.476;8.310;2023-06-22T12:39:34;13.47;;;7.00;;
53299;SDS011;39187;48.476;8.310;2023-06-22T12:42:00;9.60;;;5.87;;
53299;SDS011;39187;48.476;8.310;2023-06-22T12:44:25;10.00;;;5.23;;
53299;SDS011;39187;48.476;8.310;2023-06-22T12:46:51;9.30;;;4.80;;
53299;SDS011;39187;48.476;8.310;2023-06-22T12:49:17;13.30;;;5.73;;
53299;SDS011;39187;48.476;8.310;2023-06-22T12:51:43;13.47;;;6.27;;
53299;SDS011;39187;48.476;8.310;2023-06-22T12:54:09;17.23;;;5.50;;
53299;SDS011;39187;48.476;8.310;2023-06-22T12:56:36;10.90;;;5.50;;
53299;SDS011;39187;48.476;8.310;2023-06-22T12:59:02;8.53;;;4.90;;
53299;SDS011;39187;48.476;8.310;2023-06-22T13:01:29;8.33;;;4.33;;
53299;SDS011;39187;48.476;8.310;2023-06-22T13:03:58;7.33;;;5.40;;
53299;SDS011;39187;48.476;8.310;2023-06-22T13:06:24;17.93;;;4.83;;
53299;SDS011;39187;48.476;8.310;2023-06-22T13:08:50;19.03;;;5.67;;
53299;SDS011;39187;48.476;8.310;2023-06-22T13:11:16;11.27;;;4.60;;
53299;SDS011;39187;48.476;8.310;2023-06-22T13:13:41;6.33;;;4.50;;
53299;SDS011;39187;48.476;8.310;2023-06-22T13:16:09;7.80;;;4.73;;
53299;SDS011;39187;48.476;8.310;2023-06-22T13:18:34;12.13;;;4.57;;
53299;SDS011;39187;48.476;8.310;2023-06-22T13:21:01;13.57;;;5.30;;
53299;SDS011;39187;48.476;8.310;2023-06-22T13:23:27;7.77;;;5.40;;
53299;SDS011;39187;48.476;8.310;2023-06-22T13:25:52;11.87;;;5.00;;
53299;SDS011;39187;48.476;8.310;2023-06-22T13:28:18;8.27;;;4.90;;
53299;SDS011;39187;48.476;8.310;2023-06-22T13:30:46;8.77;;;5.23;;
53299;SDS011;39187;48.476;8.310;2023-06-22T13:33:12;11.00;;;5.23;;
53299;SDS011;39187;48.476;8.310;2023-06-22T13:35:39;9.63;;;5.43;;
53299;SDS011;39187;48.476;8.310;2023-06-22T13:38:07;16.43;;;5.83;;
53299;SDS011;39187;48.476;8.310;2023-06-22T13:40:33;11.63;;;6.00;;
53299;SDS011;39187;48.476;8.310;2023-06-22T13:42:59;10.23;;;5.30;;
53299;SDS011;39187;48.476;8.310;2023-06-22T13:45:25;10.63;;;6.60;;
53299;SDS011;39187;48.476;8.310;2023-06-22T13:47:51;7.97;;;5.27;;
53299;SDS011;39187;48.476;8.310;2023-06-22T13:50:17;15.17;;;6.27;;
53299;SDS011;39187;48.476;8.310;2023-06-22T13:52:43;14.63;;;5.47;;
53299;SDS011;39187;48.476;8.310;2023-06-22T13:55:08;16.93;;;6.10;;
53299;SDS011;39187;48.476;8.310;2023-06-22T13:57:34;11.23;;;5.73;;
53299;SDS011;39187;48.476;8.310;2023-06-22T14:00:01;9.33;;;4.77;;
53299;SDS011;39187;48.476;8.310;2023-06-22T14:02:28;21.10;;;6.10;;
53299;SDS011;39187;48.476;8.310;2023-06-22T14:04:54;19.17;;;6.17;;
53299;SDS011;39187;48.476;8.310;2023-06-22T14:07:19;15.17;;;6.40;;
53299;SDS011;39187;48.476;8.310;2023-06-22T14:09:46;8.70;;;5.80;;
53299;SDS011;39187;48.476;8.310;2023-06-22T14:12:12;21.70;;;6.43;;
53299;SDS011;39187;48.476;8.310;2023-06-22T14:14:38;12.43;;;5.00;;
53299;SDS011;39187;48.476;8.310;2023-06-22T14:17:04;10.67;;;6.00;;
53299;SDS011;39187;48.476;8.310;2023-06-22T14:19:30;16.30;;;5.57;;
53299;SDS011;39187;48.476;8.310;2023-06-22T14:21:56;13.23;;;5.80;;
53299;SDS011;39187;48.476;8.310;2023-06-22T14:24:22;17.23;;;6.47;;
53299;SDS011;39187;48.476;8.310;2023-06-22T14:26:48;9.93;;;5.57;;
53299;SDS011;39187;48.476;8.310;2023-06-22T14:29:14;13.10;;;5.20;;
53299;SDS011;39187;48.476;8.310;2023-06-22T14:31:39;13.10;;;6.00;;
53299;SDS011;39187;48.476;8.310;2023-06-22T14:34:05;18.67;;;6.70;;
53299;SDS011;39187;48.476;8.310;2023-06-22T14:36:31;17.20;;;6.47;;
53299;SDS011;39187;48.476;8.310;2023-06-22T14:38:57;7.70;;;6.00;;